createdAt,value
2022-08-27T00:01:25.777Z,21.00
2022-08-27T00:03:55.316Z,20.90
2022-08-27T00:06:25.241Z,20.90
2022-08-27T00:08:54.314Z,21.00
2022-08-27T00:11:25.399Z,21.00
2022-08-27T00:13:53.487Z,20.90
2022-08-27T00:16:21.672Z,20.90
2022-08-27T00:18:49.848Z,20.90
2022-08-27T00:21:18.789Z,21.00
2022-08-27T00:23:46.639Z,20.90
2022-08-27T00:26:15.750Z,20.90
2022-08-27T00:28:45.391Z,20.80
2022-08-27T00:31:13.201Z,20.70
2022-08-27T00:33:40.981Z,20.60
2022-08-27T00:36:09.421Z,20.60
2022-08-27T00:38:38.550Z,20.60
2022-08-27T00:41:08.822Z,20.50
2022-08-27T00:43:49.541Z,20.40
2022-08-27T00:46:24.903Z,20.40
2022-08-27T00:48:56.593Z,20.30
2022-08-27T00:51:25.404Z,20.40
2022-08-27T00:53:54.603Z,20.40
2022-08-27T00:56:25.634Z,20.40
2022-08-27T00:58:56.625Z,20.40
2022-08-27T01:01:27.264Z,20.50
2022-08-27T01:04:00.693Z,20.60
2022-08-27T01:06:34.230Z,20.60
2022-08-27T01:09:06.554Z,20.60
2022-08-27T01:11:34.653Z,20.60
2022-08-27T01:14:03.817Z,20.60
2022-08-27T01:16:36.702Z,20.60
2022-08-27T01:19:08.372Z,20.60
2022-08-27T01:21:43.894Z,20.50
2022-08-27T01:24:24.188Z,20.60
2022-08-27T01:26:52.201Z,20.50
2022-08-27T01:29:20.308Z,20.50
2022-08-27T01:31:48.111Z,20.50
2022-08-27T01:34:16.574Z,20.50
2022-08-27T01:36:44.441Z,20.50
2022-08-27T01:39:12.938Z,20.60
2022-08-27T01:41:42.061Z,20.60
2022-08-27T01:44:09.878Z,20.60
2022-08-27T01:46:37.674Z,20.50
2022-08-27T01:49:05.487Z,20.50
2022-08-27T01:51:33.256Z,20.50
2022-08-27T01:54:01.146Z,20.50
2022-08-27T01:56:28.956Z,20.50
2022-08-27T01:58:58.177Z,20.60
2022-08-27T02:01:25.986Z,20.60
2022-08-27T02:03:53.783Z,20.60
2022-08-27T02:06:21.591Z,20.70
2022-08-27T02:08:49.353Z,20.70
2022-08-27T02:11:17.125Z,20.70
2022-08-27T02:13:44.878Z,20.70
2022-08-27T02:21:36.742Z,20.70
2022-08-27T02:24:05.079Z,20.60
2022-08-27T02:26:33.173Z,20.60
2022-08-27T02:29:01.073Z,20.70
2022-08-27T02:31:28.991Z,20.60
2022-08-27T02:33:56.903Z,20.60
2022-08-27T02:36:24.999Z,20.60
2022-08-27T02:38:54.259Z,20.60
2022-08-27T02:41:22.028Z,20.60
2022-08-27T02:43:50.073Z,20.50
2022-08-27T02:46:18.125Z,20.50
2022-08-27T02:48:46.120Z,20.60
2022-08-27T02:51:13.945Z,20.50
2022-08-27T02:53:43.874Z,20.50
2022-08-27T02:56:13.182Z,20.50
2022-08-27T02:58:47.091Z,20.50
2022-08-27T03:01:17.056Z,20.40
2022-08-27T03:03:45.035Z,20.40
2022-08-27T03:06:13.187Z,20.30
2022-08-27T03:08:52.090Z,20.40
2022-08-27T03:11:23.678Z,20.40
2022-08-27T03:13:52.011Z,20.40
2022-08-27T03:16:20.248Z,20.30
2022-08-27T03:18:47.251Z,20.30
2022-08-27T03:21:20.311Z,20.40
2022-08-27T03:23:49.174Z,20.40
2022-08-27T03:26:17.633Z,20.40
2022-08-27T03:28:47.408Z,20.30
2022-08-27T03:31:20.389Z,20.20
2022-08-27T03:33:48.433Z,20.20
2022-08-27T03:36:16.273Z,20.10
2022-08-27T03:38:44.170Z,20.10
2022-08-27T03:41:13.698Z,20.10
2022-08-27T03:43:41.715Z,20.10
2022-08-27T03:46:11.480Z,20.10
2022-08-27T03:48:39.746Z,20.10
2022-08-27T03:51:10.154Z,20.10
2022-08-27T03:53:39.589Z,20.10
2022-08-27T03:56:08.603Z,20.10
2022-08-27T03:58:37.339Z,20.00
2022-08-27T04:01:08.494Z,20.10
2022-08-27T04:03:38.183Z,20.10
2022-08-27T04:06:06.496Z,20.10
2022-08-27T04:08:34.440Z,20.00
2022-08-27T04:11:06.420Z,20.00
2022-08-27T04:13:34.514Z,20.00
2022-08-27T04:16:02.990Z,20.10
2022-08-27T04:18:30.910Z,20.10
2022-08-27T04:21:07.731Z,20.10
2022-08-27T04:23:35.698Z,20.10
2022-08-27T04:26:06.559Z,20.10
2022-08-27T04:28:38.388Z,20.00
2022-08-27T04:31:07.367Z,20.00
2022-08-27T04:33:41.107Z,20.00
2022-08-27T04:36:11.229Z,20.00
2022-08-27T04:38:39.697Z,19.90
2022-08-27T04:41:21.698Z,20.00
2022-08-27T04:43:50.666Z,20.00
2022-08-27T04:46:23.601Z,20.00
2022-08-27T04:48:52.262Z,20.00
2022-08-27T04:51:22.016Z,20.10
2022-08-27T04:53:51.013Z,20.10
2022-08-27T04:56:21.677Z,20.10
2022-08-27T04:58:52.058Z,20.10
2022-08-27T05:01:22.346Z,20.20
2022-08-27T05:03:51.005Z,20.10
2022-08-27T05:06:19.537Z,20.10
2022-08-27T05:08:50.137Z,20.20
2022-08-27T05:11:21.453Z,20.10
2022-08-27T05:13:50.080Z,20.10
2022-08-27T05:16:22.274Z,20.20
2022-08-27T05:18:53.519Z,20.10
2022-08-27T05:21:27.799Z,20.10
2022-08-27T05:24:01.354Z,20.10
2022-08-27T05:26:30.088Z,20.00
2022-08-27T05:29:00.394Z,20.00
2022-08-27T05:31:29.408Z,20.00
2022-08-27T05:33:57.948Z,20.00
2022-08-27T05:36:28.544Z,20.00
2022-08-27T05:38:59.840Z,20.00
2022-08-27T05:41:34.852Z,20.00
2022-08-27T05:44:24.113Z,19.90
2022-08-27T05:46:54.555Z,19.90
2022-08-27T05:49:22.831Z,19.80
2022-08-27T05:51:50.883Z,19.80
2022-08-27T05:54:20.736Z,19.80
2022-08-27T05:56:52.614Z,19.80
2022-08-27T05:59:42.440Z,19.70
2022-08-27T06:02:13.541Z,19.80
2022-08-27T06:04:41.719Z,19.70
2022-08-27T06:07:11.013Z,19.60
2022-08-27T06:09:40.923Z,19.60
2022-08-27T06:12:09.597Z,19.70
2022-08-27T06:14:38.423Z,19.70
2022-08-27T06:17:06.573Z,19.70
2022-08-27T06:19:36.590Z,19.80
2022-08-27T06:22:10.603Z,19.80
2022-08-27T06:24:41.478Z,19.90
2022-08-27T06:27:12.279Z,19.90
2022-08-27T06:29:57.596Z,19.80
2022-08-27T06:32:27.022Z,19.80
2022-08-27T06:34:54.971Z,19.80
2022-08-27T06:37:22.933Z,19.70
2022-08-27T06:39:52.616Z,19.60
2022-08-27T06:42:22.681Z,19.60
2022-08-27T06:44:50.752Z,19.60
2022-08-27T06:47:18.644Z,19.60
2022-08-27T06:49:49.204Z,19.60
2022-08-27T06:52:17.145Z,19.70
2022-08-27T06:54:45.750Z,19.60
2022-08-27T06:57:14.971Z,19.70
2022-08-27T06:59:44.104Z,19.80
2022-08-27T07:02:12.488Z,19.80
2022-08-27T07:04:40.502Z,19.80
2022-08-27T07:07:08.538Z,19.80
2022-08-27T07:09:36.768Z,19.80
2022-08-27T07:12:05.395Z,19.70
2022-08-27T07:14:37.979Z,19.70
2022-08-27T07:17:11.169Z,19.80
2022-08-27T07:19:43.691Z,19.70
2022-08-27T07:22:12.982Z,19.70
2022-08-27T07:24:41.124Z,19.50
2022-08-27T07:27:09.891Z,19.50
2022-08-27T07:29:39.176Z,19.40
2022-08-27T07:32:07.257Z,19.40
2022-08-27T07:34:35.339Z,19.40
2022-08-27T07:37:03.289Z,19.50
2022-08-27T07:39:31.369Z,19.50
2022-08-27T07:42:17.461Z,19.50
2022-08-27T07:44:46.938Z,19.60
2022-08-27T07:47:17.995Z,19.60
2022-08-27T07:49:49.092Z,19.70
2022-08-27T07:52:17.287Z,19.80
2022-08-27T07:54:45.193Z,19.80
2022-08-27T07:57:13.998Z,19.70
2022-08-27T07:59:42.227Z,19.70
2022-08-27T08:02:12.850Z,19.70
2022-08-27T08:04:41.004Z,19.80
2022-08-27T08:07:10.130Z,19.80
2022-08-27T08:09:39.219Z,19.70
2022-08-27T08:12:07.666Z,19.80
2022-08-27T08:14:37.697Z,19.80
2022-08-27T08:17:10.257Z,19.80
2022-08-27T08:19:40.414Z,19.90
2022-08-27T08:22:08.794Z,19.90
2022-08-27T08:24:37.274Z,19.80
2022-08-27T08:27:07.760Z,19.80
2022-08-27T08:29:37.781Z,19.80
2022-08-27T08:32:06.376Z,19.70
2022-08-27T08:34:35.794Z,19.70
2022-08-27T08:37:06.608Z,19.80
2022-08-27T08:39:34.903Z,19.80
2022-08-27T08:42:05.832Z,19.90
2022-08-27T08:44:56.242Z,20.00
2022-08-27T08:47:32.191Z,20.00
2022-08-27T08:50:06.445Z,20.00
2022-08-27T08:52:44.928Z,20.00
2022-08-27T08:55:41.374Z,20.10
2022-08-27T08:58:17.533Z,20.10
2022-08-27T09:00:55.494Z,20.10
2022-08-27T09:04:00.388Z,20.10
2022-08-27T09:09:29.003Z,20.10
2022-08-27T09:12:01.426Z,20.10
2022-08-27T09:14:38.867Z,20.10
2022-08-27T09:17:11.613Z,20.00
2022-08-27T09:19:40.070Z,20.00
2022-08-27T09:22:20.281Z,20.00
2022-08-27T09:25:03.517Z,20.00
2022-08-27T09:27:31.908Z,20.00
2022-08-27T09:30:00.068Z,20.00
2022-08-27T09:32:32.905Z,20.10
2022-08-27T09:35:07.063Z,20.10
2022-08-27T09:37:43.407Z,20.00
2022-08-27T09:40:23.164Z,20.00
2022-08-27T09:42:54.336Z,20.00
2022-08-27T09:45:31.412Z,20.10
2022-08-27T09:48:10.681Z,20.10
2022-08-27T09:51:04.358Z,20.10
2022-08-27T09:53:45.262Z,20.10
2022-08-27T09:56:29.698Z,20.20
2022-08-27T09:59:05.314Z,20.40
2022-08-27T10:01:35.828Z,20.40
2022-08-27T10:04:10.442Z,20.40
2022-08-27T10:06:45.787Z,20.40
2022-08-27T10:09:18.778Z,20.40
2022-08-27T10:11:54.516Z,20.40
2022-08-27T10:14:30.000Z,20.40
2022-08-27T10:17:12.879Z,20.40
2022-08-27T10:19:53.427Z,20.50
2022-08-27T10:22:34.439Z,20.50
2022-08-27T10:25:20.136Z,20.50
2022-08-27T10:28:00.231Z,20.50
2022-08-27T10:30:39.971Z,20.40
2022-08-27T10:33:14.710Z,20.40
2022-08-27T10:35:54.621Z,20.50
2022-08-27T10:38:25.947Z,20.60
2022-08-27T10:40:59.817Z,20.60
2022-08-27T10:44:06.662Z,20.70
2022-08-27T10:47:01.147Z,20.70
2022-08-27T10:49:43.462Z,20.80
2022-08-27T10:52:18.784Z,20.90
2022-08-27T10:54:58.848Z,21.00
2022-08-27T10:57:55.547Z,21.00
2022-08-27T11:00:35.345Z,21.00
2022-08-27T11:03:07.937Z,21.10
2022-08-27T11:05:42.792Z,21.10
2022-08-27T11:08:19.204Z,21.00
2022-08-27T11:10:54.733Z,21.00
2022-08-27T11:13:32.800Z,21.00
2022-08-27T11:16:08.407Z,21.00
2022-08-27T11:18:44.590Z,21.10
2022-08-27T11:21:21.222Z,21.20
2022-08-27T11:23:55.583Z,21.40
2022-08-27T11:26:23.718Z,21.40
2022-08-27T11:28:55.884Z,21.40
2022-08-27T11:31:34.659Z,21.40
2022-08-27T11:34:10.916Z,21.40
2022-08-27T11:37:09.850Z,21.40
2022-08-27T11:40:06.315Z,21.50
2022-08-27T11:42:42.154Z,21.50
2022-08-27T11:45:19.795Z,21.50
2022-08-27T11:48:03.021Z,21.60
2022-08-27T11:50:32.586Z,21.60
2022-08-27T11:53:03.864Z,21.70
2022-08-27T11:55:36.696Z,21.80
2022-08-27T11:58:09.345Z,22.00
2022-08-27T12:00:39.441Z,22.20
2022-08-27T12:03:26.761Z,22.50
2022-08-27T12:06:11.469Z,22.70
2022-08-27T12:08:43.952Z,22.80
2022-08-27T12:11:32.019Z,23.00
2022-08-27T12:14:17.943Z,23.20
2022-08-27T12:17:00.866Z,23.30
2022-08-27T12:19:44.073Z,23.40
2022-08-27T12:22:26.392Z,23.40
2022-08-27T12:24:57.662Z,23.40
2022-08-27T12:27:34.573Z,23.50
2022-08-27T12:30:07.923Z,23.40
2022-08-27T12:32:42.015Z,23.40
2022-08-27T12:35:15.014Z,23.50
2022-08-27T12:37:46.416Z,23.60
2022-08-27T12:40:24.595Z,23.70
2022-08-27T12:43:07.588Z,23.70
2022-08-27T12:45:47.220Z,23.70
2022-08-27T12:48:18.699Z,23.70
2022-08-27T12:50:53.441Z,23.60
2022-08-27T12:53:36.438Z,23.70
2022-08-27T12:56:38.459Z,23.60
2022-08-27T12:59:22.028Z,23.50
2022-08-27T13:02:05.980Z,23.40
2022-08-27T13:04:38.377Z,23.40
2022-08-27T13:07:07.965Z,23.30
2022-08-27T13:09:39.374Z,23.30
2022-08-27T13:12:17.941Z,23.50
2022-08-27T13:14:50.364Z,23.50
2022-08-27T13:17:39.723Z,23.50
2022-08-27T13:20:18.532Z,23.70
2022-08-27T13:22:54.406Z,23.70
2022-08-27T13:25:30.171Z,23.70
2022-08-27T13:28:07.924Z,23.80
2022-08-27T13:30:38.238Z,23.70
2022-08-27T13:33:09.879Z,23.70
2022-08-27T13:35:41.225Z,23.80
2022-08-27T13:38:12.079Z,23.80
2022-08-27T13:43:11.264Z,24.00
2022-08-27T13:45:41.456Z,24.20
2022-08-27T13:48:12.359Z,24.30
2022-08-27T13:50:50.256Z,24.30
2022-08-27T13:53:40.068Z,24.40
2022-08-27T13:56:08.546Z,24.50
2022-08-27T13:58:36.843Z,24.50
2022-08-27T14:01:13.034Z,24.60
2022-08-27T14:03:48.818Z,24.70
2022-08-27T14:06:31.578Z,24.80
2022-08-27T14:09:16.145Z,24.90
2022-08-27T14:11:45.202Z,24.90
2022-08-27T14:14:14.141Z,24.90
2022-08-27T14:16:41.965Z,24.90
2022-08-27T14:19:12.443Z,24.90
2022-08-27T14:21:43.188Z,24.90
2022-08-27T14:24:13.693Z,24.80
2022-08-27T14:26:41.590Z,24.70
2022-08-27T14:29:11.852Z,24.70
2022-08-27T14:31:40.548Z,24.70
2022-08-27T14:34:08.422Z,24.70
2022-08-27T14:36:38.308Z,24.70
2022-08-27T14:39:07.435Z,24.70
2022-08-27T14:41:36.739Z,24.70
2022-08-27T14:44:05.138Z,24.70
2022-08-27T14:46:41.496Z,24.60
2022-08-27T14:49:14.048Z,24.50
2022-08-27T14:51:44.441Z,24.50
2022-08-27T14:54:12.836Z,24.50
2022-08-27T14:56:42.088Z,24.60
2022-08-27T14:59:09.845Z,24.60
2022-08-27T15:01:38.947Z,24.60
2022-08-27T15:04:08.209Z,24.70
2022-08-27T15:06:36.009Z,24.70
2022-08-27T15:09:03.856Z,24.90
2022-08-27T15:11:34.196Z,25.00
2022-08-27T15:14:06.482Z,25.10
2022-08-27T15:16:38.184Z,25.00
2022-08-27T15:19:07.499Z,25.00
2022-08-27T15:21:37.676Z,24.90
2022-08-27T15:24:15.877Z,24.80
2022-08-27T15:26:43.794Z,24.80
2022-08-27T15:29:13.063Z,24.70
2022-08-27T15:31:41.765Z,24.60
2022-08-27T15:34:09.915Z,24.60
2022-08-27T15:36:38.067Z,24.50
2022-08-27T15:39:06.609Z,24.40
2022-08-27T15:41:46.060Z,24.40
2022-08-27T15:44:24.966Z,24.40
2022-08-27T15:46:52.877Z,24.40
2022-08-27T15:49:20.828Z,24.30
2022-08-27T15:51:49.709Z,24.20
2022-08-27T15:54:20.206Z,24.20
2022-08-27T15:56:48.060Z,24.20
2022-08-27T15:59:16.818Z,24.20
2022-08-27T16:01:46.246Z,24.10
2022-08-27T16:04:15.747Z,24.20
2022-08-27T16:06:43.520Z,24.10
2022-08-27T16:09:11.479Z,24.10
2022-08-27T16:11:40.790Z,24.00
2022-08-27T16:14:10.566Z,23.90
2022-08-27T16:16:39.803Z,23.90
2022-08-27T16:19:11.629Z,23.80
2022-08-27T16:21:41.493Z,23.80
2022-08-27T16:24:10.929Z,23.80
2022-08-27T16:26:39.665Z,23.70
2022-08-27T16:29:08.001Z,23.60
2022-08-27T16:31:37.135Z,23.60
2022-08-27T16:34:14.863Z,23.50
2022-08-27T16:36:43.121Z,23.50
2022-08-27T16:39:11.019Z,23.50
2022-08-27T16:41:38.973Z,23.40
2022-08-27T16:44:07.612Z,23.30
2022-08-27T16:46:36.095Z,23.10
2022-08-27T16:49:24.280Z,23.00
2022-08-27T16:51:53.519Z,22.90
2022-08-27T16:54:21.833Z,22.80
2022-08-27T16:56:49.707Z,22.80
2022-08-27T16:59:17.692Z,22.70
2022-08-27T17:01:48.474Z,22.60
2022-08-27T17:04:26.492Z,22.60
2022-08-27T17:06:58.651Z,22.50
2022-08-27T17:09:26.909Z,22.40
2022-08-27T17:11:57.852Z,22.30
2022-08-27T17:14:26.753Z,22.30
2022-08-27T17:16:54.962Z,22.30
2022-08-27T17:19:26.009Z,22.30
2022-08-27T17:22:04.113Z,22.30
2022-08-27T17:24:35.041Z,22.20
2022-08-27T17:27:03.053Z,22.10
2022-08-27T17:29:30.918Z,22.00
2022-08-27T17:31:58.688Z,21.90
2022-08-27T17:34:26.714Z,21.80
2022-08-27T17:36:54.858Z,21.70
2022-08-27T17:39:23.910Z,21.80
2022-08-27T17:41:53.178Z,21.70
2022-08-27T17:44:24.597Z,21.60
2022-08-27T17:46:53.949Z,21.50
2022-08-27T17:49:25.628Z,21.40
2022-08-27T17:51:57.822Z,21.40
2022-08-27T17:54:32.341Z,21.30
2022-08-27T17:57:01.342Z,21.30
2022-08-27T17:59:29.941Z,21.20
2022-08-27T18:01:58.125Z,21.10
2022-08-27T18:04:25.939Z,21.10
2022-08-27T18:06:53.759Z,21.00
2022-08-27T18:09:21.818Z,21.00
2022-08-27T18:11:51.167Z,20.90
2022-08-27T18:14:19.122Z,20.80
2022-08-27T18:16:47.420Z,20.70
2022-08-27T18:19:15.246Z,20.60
2022-08-27T18:21:46.959Z,20.50
2022-08-27T18:24:15.732Z,20.50
2022-08-27T18:26:45.030Z,20.40
2022-08-27T18:29:15.111Z,20.30
2022-08-27T18:31:43.913Z,20.20
2022-08-27T18:34:11.722Z,20.10
2022-08-27T18:36:39.482Z,20.00
2022-08-27T18:39:07.443Z,20.00
2022-08-27T18:41:35.225Z,19.80
2022-08-27T18:44:04.658Z,19.70
2022-08-27T18:46:46.391Z,19.60
2022-08-27T18:49:14.268Z,19.50
2022-08-27T18:51:43.553Z,19.50
2022-08-27T18:54:12.084Z,19.40
2022-08-27T18:56:39.849Z,19.30
2022-08-27T18:59:09.954Z,19.30
2022-08-27T19:01:37.848Z,19.20
2022-08-27T19:04:07.572Z,19.20
2022-08-27T19:06:35.556Z,19.20
2022-08-27T19:09:04.467Z,19.10
2022-08-27T19:11:32.723Z,19.10
2022-08-27T19:14:00.550Z,19.10
2022-08-27T19:16:35.051Z,19.10
2022-08-27T19:19:04.681Z,19.00
2022-08-27T19:21:34.166Z,19.00
2022-08-27T19:24:04.176Z,18.90
2022-08-27T19:26:32.631Z,18.80
2022-08-27T19:29:00.585Z,18.80
2022-08-27T19:31:29.126Z,18.70
2022-08-27T19:33:57.080Z,18.70
2022-08-27T19:36:27.183Z,18.70
2022-08-27T19:38:57.531Z,18.60
2022-08-27T19:41:27.933Z,18.50
2022-08-27T19:43:55.984Z,18.50
2022-08-27T19:46:26.263Z,18.50
2022-08-27T19:48:55.273Z,18.40
2022-08-27T19:51:22.999Z,18.30
2022-08-27T19:53:50.757Z,18.30
2022-08-27T19:56:20.010Z,18.30
2022-08-27T19:58:47.847Z,18.20
2022-08-27T20:01:15.817Z,18.20
2022-08-27T20:03:43.753Z,18.10
2022-08-27T20:06:11.677Z,18.10
2022-08-27T20:08:39.746Z,18.10
2022-08-27T20:11:07.745Z,18.10
2022-08-27T20:13:38.015Z,18.00
2022-08-27T20:16:18.329Z,18.00
2022-08-27T20:18:46.136Z,18.00
2022-08-27T20:21:13.898Z,17.90
2022-08-27T20:23:41.676Z,17.90
2022-08-27T20:26:09.454Z,17.90
2022-08-27T20:28:39.958Z,17.80
2022-08-27T20:31:08.526Z,17.80
2022-08-27T20:33:36.397Z,17.80
2022-08-27T20:36:04.622Z,17.70
2022-08-27T20:38:32.415Z,17.70
2022-08-27T20:41:00.236Z,17.70
2022-08-27T20:43:28.427Z,17.60
2022-08-27T20:45:58.176Z,17.50
2022-08-27T20:48:26.035Z,17.50
2022-08-27T20:50:53.844Z,17.50
2022-08-27T20:53:22.190Z,17.50
2022-08-27T20:55:50.152Z,17.40
2022-08-27T20:58:35.681Z,17.40
2022-08-27T21:01:05.430Z,17.30
2022-08-27T21:03:33.310Z,17.40
2022-08-27T21:06:01.185Z,17.30
2022-08-27T21:08:30.216Z,17.20
2022-08-27T21:10:58.688Z,17.30
2022-08-27T21:13:28.126Z,17.20
2022-08-27T21:15:56.605Z,17.20
2022-08-27T21:18:29.504Z,17.20
2022-08-27T21:20:58.018Z,17.20
2022-08-27T21:23:27.626Z,17.10
2022-08-27T21:25:55.458Z,17.10
2022-08-27T21:28:23.230Z,17.00
2022-08-27T21:30:50.981Z,17.00
2022-08-27T21:33:18.963Z,17.00
2022-08-27T21:35:48.066Z,17.00
2022-08-27T21:38:16.636Z,17.00
2022-08-27T21:40:44.488Z,17.00
2022-08-27T21:43:12.341Z,17.00
2022-08-27T21:45:41.648Z,16.90
2022-08-27T21:48:09.741Z,16.90
2022-08-27T21:50:37.490Z,16.90
2022-08-27T21:53:06.591Z,16.90
2022-08-27T21:55:34.361Z,16.90
2022-08-27T21:58:02.251Z,16.80
2022-08-27T22:00:40.480Z,16.80
2022-08-27T22:03:10.981Z,16.70
2022-08-27T22:05:40.593Z,16.60
2022-08-27T22:08:10.545Z,16.60
2022-08-27T22:10:39.389Z,16.60
2022-08-27T22:13:08.098Z,16.50
2022-08-27T22:15:36.155Z,16.50
2022-08-27T22:18:05.554Z,16.50
2022-08-27T22:20:33.747Z,16.50
2022-08-27T22:23:01.685Z,16.50
2022-08-27T22:25:31.076Z,16.40
2022-08-27T22:27:58.872Z,16.40
2022-08-27T22:30:26.815Z,16.30
2022-08-27T22:32:54.682Z,16.30
2022-08-27T22:35:22.902Z,16.30
2022-08-27T22:37:51.753Z,16.30
2022-08-27T22:40:22.930Z,16.30
2022-08-27T22:42:52.982Z,16.30
2022-08-27T22:45:21.593Z,16.30
2022-08-27T22:47:49.337Z,16.20
2022-08-27T22:50:17.873Z,16.20
2022-08-27T22:52:47.798Z,16.20
2022-08-27T22:55:19.271Z,16.20
2022-08-27T22:57:47.214Z,16.10
2022-08-27T23:00:19.824Z,16.10
2022-08-27T23:02:48.040Z,16.10
2022-08-27T23:05:17.039Z,16.00
2022-08-27T23:07:45.581Z,16.00
2022-08-27T23:10:17.009Z,16.00
2022-08-27T23:12:45.146Z,16.00
2022-08-27T23:15:16.766Z,15.90
2022-08-27T23:17:44.675Z,15.90
2022-08-27T23:20:14.080Z,15.80
2022-08-27T23:22:42.218Z,15.70
2022-08-27T23:25:29.184Z,15.70
2022-08-27T23:27:59.664Z,15.70
2022-08-27T23:30:29.791Z,15.70
2022-08-27T23:32:57.842Z,15.70
2022-08-27T23:35:27.805Z,15.70
2022-08-27T23:37:55.883Z,15.70
2022-08-27T23:40:24.156Z,15.70
2022-08-27T23:42:52.181Z,15.70
2022-08-27T23:45:23.156Z,15.70
2022-08-27T23:47:52.446Z,15.60
2022-08-27T23:50:22.015Z,15.50
2022-08-27T23:53:01.728Z,15.60
2022-08-27T23:55:30.031Z,15.50
2022-08-27T23:57:58.310Z,15.60
